sensor_id;sensor_type;location;lat;lon;timestamp;temperature;humidity
7192;DHT22;3637;51.494;11.958;2022-12-18T00:02:08;-4.00;99.90
7192;DHT22;3637;51.494;11.958;2022-12-18T00:05:09;-4.00;99.90
7192;DHT22;3637;51.494;11.958;2022-12-18T00:08:11;-3.90;99.90
7192;DHT22;3637;51.494;11.958;2022-12-18T00:11:17;-3.80;99.90
7192;DHT22;3637;51.494;11.958;2022-12-18T00:14:19;-3.80;99.90
7192;DHT22;3637;51.494;11.958;2022-12-18T00:17:21;-4.00;99.90
7192;DHT22;3637;51.494;11.958;2022-12-18T00:20:22;-4.10;99.90
7192;DHT22;3637;51.494;11.958;2022-12-18T00:23:26;-4.40;99.90
7192;DHT22;3637;51.494;11.958;2022-12-18T00:26:31;-4.10;99.90
7192;DHT22;3637;51.494;11.958;2022-12-18T00:29:33;-3.80;99.90
7192;DHT22;3637;51.494;11.958;2022-12-18T00:32:35;-4.20;99.90
7192;DHT22;3637;51.494;11.958;2022-12-18T00:35:37;-4.20;99.90
7192;DHT22;3637;51.494;11.958;2022-12-18T00:38:40;-4.20;99.90
7192;DHT22;3637;51.494;11.958;2022-12-18T00:41:43;-4.20;99.90
7192;DHT22;3637;51.494;11.958;2022-12-18T00:45:03;-4.10;99.90
7192;DHT22;3637;51.494;11.958;2022-12-18T00:48:05;-4.10;99.90
7192;DHT22;3637;51.494;11.958;2022-12-18T00:51:07;-4.30;99.90
7192;DHT22;3637;51.494;11.958;2022-12-18T00:54:09;-4.30;99.90
7192;DHT22;3637;51.494;11.958;2022-12-18T00:57:12;-4.30;99.90
7192;DHT22;3637;51.494;11.958;2022-12-18T01:00:15;-4.40;99.90
7192;DHT22;3637;51.494;11.958;2022-12-18T01:03:17;-4.50;99.90
7192;DHT22;3637;51.494;11.958;2022-12-18T01:06:19;-4.40;99.90
7192;DHT22;3637;51.494;11.958;2022-12-18T01:09:21;-4.30;99.90
7192;DHT22;3637;51.494;11.958;2022-12-18T01:12:24;-4.40;99.90
7192;DHT22;3637;51.494;11.958;2022-12-18T01:15:26;-4.40;99.90
7192;DHT22;3637;51.494;11.958;2022-12-18T01:18:27;-4.40;99.90
7192;DHT22;3637;51.494;11.958;2022-12-18T01:21:29;-4.30;99.90
7192;DHT22;3637;51.494;11.958;2022-12-18T01:24:31;-4.30;99.90
7192;DHT22;3637;51.494;11.958;2022-12-18T01:27:34;-4.40;99.90
7192;DHT22;3637;51.494;11.958;2022-12-18T01:30:36;-4.40;99.90
7192;DHT22;3637;51.494;11.958;2022-12-18T01:33:38;-4.40;99.90
7192;DHT22;3637;51.494;11.958;2022-12-18T01:36:40;-4.40;99.90
7192;DHT22;3637;51.494;11.958;2022-12-18T01:39:42;-4.10;99.90
7192;DHT22;3637;51.494;11.958;2022-12-18T01:42:50;-3.90;99.90
7192;DHT22;3637;51.494;11.958;2022-12-18T01:45:52;-4.60;99.90
7192;DHT22;3637;51.494;11.958;2022-12-18T01:48:57;-4.60;99.90
7192;DHT22;3637;51.494;11.958;2022-12-18T01:51:59;-4.60;99.90
7192;DHT22;3637;51.494;11.958;2022-12-18T01:55:05;-4.60;99.90
7192;DHT22;3637;51.494;11.958;2022-12-18T01:58:09;-4.60;99.90
7192;DHT22;3637;51.494;11.958;2022-12-18T02:01:11;-4.70;99.90
7192;DHT22;3637;51.494;11.958;2022-12-18T02:04:22;-4.80;99.90
7192;DHT22;3637;51.494;11.958;2022-12-18T02:07:32;-4.80;99.90
7192;DHT22;3637;51.494;11.958;2022-12-18T02:10:45;-4.80;99.90
7192;DHT22;3637;51.494;11.958;2022-12-18T02:13:53;-4.80;99.90
7192;DHT22;3637;51.494;11.958;2022-12-18T02:17:01;-4.20;99.90
7192;DHT22;3637;51.494;11.958;2022-12-18T02:20:09;-4.90;99.90
7192;DHT22;3637;51.494;11.958;2022-12-18T02:23:24;-4.90;99.90
7192;DHT22;3637;51.494;11.958;2022-12-18T02:26:33;-5.00;99.90
7192;DHT22;3637;51.494;11.958;2022-12-18T02:29:39;-5.10;99.90
7192;DHT22;3637;51.494;11.958;2022-12-18T02:32:45;-5.20;99.90
7192;DHT22;3637;51.494;11.958;2022-12-18T02:35:48;-5.10;99.90
7192;DHT22;3637;51.494;11.958;2022-12-18T02:38:52;-5.10;99.90
7192;DHT22;3637;51.494;11.958;2022-12-18T02:41:56;-5.20;99.90
7192;DHT22;3637;51.494;11.958;2022-12-18T02:44:59;-5.20;99.90
7192;DHT22;3637;51.494;11.958;2022-12-18T02:48:01;-5.20;99.90
7192;DHT22;3637;51.494;11.958;2022-12-18T02:51:07;-5.10;99.90
7192;DHT22;3637;51.494;11.958;2022-12-18T02:54:16;-5.20;99.90
7192;DHT22;3637;51.494;11.958;2022-12-18T02:57:28;-5.10;99.90
7192;DHT22;3637;51.494;11.958;2022-12-18T03:00:37;-5.10;99.90
7192;DHT22;3637;51.494;11.958;2022-12-18T03:03:44;-5.30;99.90
7192;DHT22;3637;51.494;11.958;2022-12-18T03:06:49;-5.40;99.90
7192;DHT22;3637;51.494;11.958;2022-12-18T03:09:53;-5.40;99.90
7192;DHT22;3637;51.494;11.958;2022-12-18T03:13:02;-4.70;99.90
7192;DHT22;3637;51.494;11.958;2022-12-18T03:16:07;-5.40;99.90
7192;DHT22;3637;51.494;11.958;2022-12-18T03:19:14;-5.40;99.90
7192;DHT22;3637;51.494;11.958;2022-12-18T03:22:18;-5.40;99.90
7192;DHT22;3637;51.494;11.958;2022-12-18T03:25:21;-5.50;99.90
7192;DHT22;3637;51.494;11.958;2022-12-18T03:28:30;-5.60;99.90
7192;DHT22;3637;51.494;11.958;2022-12-18T03:31:33;-5.60;99.90
7192;DHT22;3637;51.494;11.958;2022-12-18T03:34:37;-5.60;99.90
7192;DHT22;3637;51.494;11.958;2022-12-18T03:37:40;-5.50;99.90
7192;DHT22;3637;51.494;11.958;2022-12-18T03:40:50;-5.50;99.90
7192;DHT22;3637;51.494;11.958;2022-12-18T03:43:58;-5.50;99.90
7192;DHT22;3637;51.494;11.958;2022-12-18T03:47:06;-5.40;99.90
7192;DHT22;3637;51.494;11.958;2022-12-18T03:50:13;-5.50;99.90
7192;DHT22;3637;51.494;11.958;2022-12-18T03:53:23;-5.50;99.90
7192;DHT22;3637;51.494;11.958;2022-12-18T03:56:30;-5.60;99.90
7192;DHT22;3637;51.494;11.958;2022-12-18T03:59:35;-5.70;99.90
7192;DHT22;3637;51.494;11.958;2022-12-18T04:02:41;-5.60;99.90
7192;DHT22;3637;51.494;11.958;2022-12-18T04:05:44;-5.70;99.90
7192;DHT22;3637;51.494;11.958;2022-12-18T04:08:49;-5.70;99.90
7192;DHT22;3637;51.494;11.958;2022-12-18T04:11:52;-5.70;99.90
7192;DHT22;3637;51.494;11.958;2022-12-18T04:14:55;-5.80;99.90
7192;DHT22;3637;51.494;11.958;2022-12-18T04:17:57;-5.80;99.90
7192;DHT22;3637;51.494;11.958;2022-12-18T04:20:59;-5.90;99.90
7192;DHT22;3637;51.494;11.958;2022-12-18T04:24:01;-5.90;99.90
7192;DHT22;3637;51.494;11.958;2022-12-18T04:27:04;-4.80;99.90
7192;DHT22;3637;51.494;11.958;2022-12-18T04:30:08;-6.00;99.90
7192;DHT22;3637;51.494;11.958;2022-12-18T04:33:10;-6.00;99.90
7192;DHT22;3637;51.494;11.958;2022-12-18T04:36:12;-6.00;99.90
7192;DHT22;3637;51.494;11.958;2022-12-18T04:39:18;-6.10;99.90
7192;DHT22;3637;51.494;11.958;2022-12-18T04:42:20;-6.20;99.90
7192;DHT22;3637;51.494;11.958;2022-12-18T04:45:24;-6.10;99.90
7192;DHT22;3637;51.494;11.958;2022-12-18T04:48:26;-6.20;99.90
7192;DHT22;3637;51.494;11.958;2022-12-18T04:51:28;-6.20;99.90
7192;DHT22;3637;51.494;11.958;2022-12-18T04:54:29;-6.30;99.90
7192;DHT22;3637;51.494;11.958;2022-12-18T04:57:31;-6.40;99.90
7192;DHT22;3637;51.494;11.958;2022-12-18T05:00:35;-6.40;99.90
7192;DHT22;3637;51.494;11.958;2022-12-18T05:03:37;-6.40;99.90
7192;DHT22;3637;51.494;11.958;2022-12-18T05:06:39;-6.50;99.90
7192;DHT22;3637;51.494;11.958;2022-12-18T05:09:41;-6.60;99.90
7192;DHT22;3637;51.494;11.958;2022-12-18T05:12:43;-6.60;99.90
7192;DHT22;3637;51.494;11.958;2022-12-18T05:16:00;-6.60;99.90
7192;DHT22;3637;51.494;11.958;2022-12-18T05:19:02;-6.70;99.90
7192;DHT22;3637;51.494;11.958;2022-12-18T05:22:04;-6.80;99.90
7192;DHT22;3637;51.494;11.958;2022-12-18T05:25:07;-6.80;99.90
7192;DHT22;3637;51.494;11.958;2022-12-18T05:28:09;-6.90;99.90
7192;DHT22;3637;51.494;11.958;2022-12-18T05:31:12;-6.80;99.90
7192;DHT22;3637;51.494;11.958;2022-12-18T05:34:14;-7.00;99.90
7192;DHT22;3637;51.494;11.958;2022-12-18T05:37:17;-7.10;99.90
7192;DHT22;3637;51.494;11.958;2022-12-18T05:40:19;-7.20;99.90
7192;DHT22;3637;51.494;11.958;2022-12-18T05:43:22;-7.20;99.90
7192;DHT22;3637;51.494;11.958;2022-12-18T05:46:26;-7.20;99.90
7192;DHT22;3637;51.494;11.958;2022-12-18T05:49:28;-7.30;99.90
7192;DHT22;3637;51.494;11.958;2022-12-18T05:52:30;-7.20;99.90
7192;DHT22;3637;51.494;11.958;2022-12-18T05:55:33;-6.50;99.90
7192;DHT22;3637;51.494;11.958;2022-12-18T05:58:35;-7.20;99.90
7192;DHT22;3637;51.494;11.958;2022-12-18T06:01:38;-7.10;99.90
7192;DHT22;3637;51.494;11.958;2022-12-18T06:04:41;-7.10;99.90
7192;DHT22;3637;51.494;11.958;2022-12-18T06:07:43;-7.20;99.90
7192;DHT22;3637;51.494;11.958;2022-12-18T06:10:50;-7.20;99.90
7192;DHT22;3637;51.494;11.958;2022-12-18T06:13:54;-7.30;99.90
7192;DHT22;3637;51.494;11.958;2022-12-18T06:16:58;-7.50;99.90
7192;DHT22;3637;51.494;11.958;2022-12-18T06:20:00;-7.50;99.90
7192;DHT22;3637;51.494;11.958;2022-12-18T06:23:02;-7.50;99.90
7192;DHT22;3637;51.494;11.958;2022-12-18T06:26:05;-7.60;99.90
7192;DHT22;3637;51.494;11.958;2022-12-18T06:29:07;-6.80;99.90
7192;DHT22;3637;51.494;11.958;2022-12-18T06:32:11;-7.60;99.90
7192;DHT22;3637;51.494;11.958;2022-12-18T06:35:13;-7.70;99.90
7192;DHT22;3637;51.494;11.958;2022-12-18T06:38:14;-7.20;99.90
7192;DHT22;3637;51.494;11.958;2022-12-18T06:41:18;-7.60;99.90
7192;DHT22;3637;51.494;11.958;2022-12-18T06:44:20;-7.60;99.90
7192;DHT22;3637;51.494;11.958;2022-12-18T06:47:24;-7.60;99.90
7192;DHT22;3637;51.494;11.958;2022-12-18T06:50:26;-7.70;99.90
7192;DHT22;3637;51.494;11.958;2022-12-18T06:53:29;-7.70;99.90
7192;DHT22;3637;51.494;11.958;2022-12-18T06:56:31;-8.40;99.90
7192;DHT22;3637;51.494;11.958;2022-12-18T06:59:33;-7.80;99.90
7192;DHT22;3637;51.494;11.958;2022-12-18T07:02:36;-8.00;99.90
7192;DHT22;3637;51.494;11.958;2022-12-18T07:05:39;-7.90;99.90
7192;DHT22;3637;51.494;11.958;2022-12-18T07:08:42;-8.00;99.90
7192;DHT22;3637;51.494;11.958;2022-12-18T07:11:44;-7.10;99.90
7192;DHT22;3637;51.494;11.958;2022-12-18T07:14:45;-7.80;99.90
7192;DHT22;3637;51.494;11.958;2022-12-18T07:17:49;-7.80;99.90
7192;DHT22;3637;51.494;11.958;2022-12-18T07:20:51;-7.80;99.90
7192;DHT22;3637;51.494;11.958;2022-12-18T07:23:53;-7.80;99.90
7192;DHT22;3637;51.494;11.958;2022-12-18T07:26:57;-7.90;99.90
7192;DHT22;3637;51.494;11.958;2022-12-18T07:29:58;-7.80;99.90
7192;DHT22;3637;51.494;11.958;2022-12-18T07:33:02;-7.80;99.90
7192;DHT22;3637;51.494;11.958;2022-12-18T07:36:06;-7.50;99.90
7192;DHT22;3637;51.494;11.958;2022-12-18T07:39:09;-7.80;99.90
7192;DHT22;3637;51.494;11.958;2022-12-18T07:42:12;-7.70;99.90
7192;DHT22;3637;51.494;11.958;2022-12-18T07:45:32;-7.80;99.90
7192;DHT22;3637;51.494;11.958;2022-12-18T07:48:35;-7.30;99.90
7192;DHT22;3637;51.494;11.958;2022-12-18T07:51:37;-8.00;99.90
7192;DHT22;3637;51.494;11.958;2022-12-18T07:54:39;-7.80;99.90
7192;DHT22;3637;51.494;11.958;2022-12-18T07:57:44;-7.90;99.90
7192;DHT22;3637;51.494;11.958;2022-12-18T08:00:46;-7.80;99.90
7192;DHT22;3637;51.494;11.958;2022-12-18T08:03:49;-7.60;99.90
7192;DHT22;3637;51.494;11.958;2022-12-18T08:06:51;-6.10;99.90
7192;DHT22;3637;51.494;11.958;2022-12-18T08:09:53;-7.30;99.90
7192;DHT22;3637;51.494;11.958;2022-12-18T08:12:55;-7.20;99.90
7192;DHT22;3637;51.494;11.958;2022-12-18T08:15:59;-7.30;99.90
7192;DHT22;3637;51.494;11.958;2022-12-18T08:19:02;-7.30;99.90
7192;DHT22;3637;51.494;11.958;2022-12-18T08:22:04;-7.80;99.90
7192;DHT22;3637;51.494;11.958;2022-12-18T08:25:07;-6.90;99.90
7192;DHT22;3637;51.494;11.958;2022-12-18T08:28:09;-7.50;99.90
7192;DHT22;3637;51.494;11.958;2022-12-18T08:31:11;-7.50;99.90
7192;DHT22;3637;51.494;11.958;2022-12-18T08:34:15;-7.40;99.90
7192;DHT22;3637;51.494;11.958;2022-12-18T08:37:19;-7.30;99.90
7192;DHT22;3637;51.494;11.958;2022-12-18T08:40:21;-7.20;99.90
7192;DHT22;3637;51.494;11.958;2022-12-18T08:43:25;-7.10;99.90
7192;DHT22;3637;51.494;11.958;2022-12-18T08:46:44;-7.10;99.90
7192;DHT22;3637;51.494;11.958;2022-12-18T08:49:47;-7.00;99.90
7192;DHT22;3637;51.494;11.958;2022-12-18T08:52:49;-6.80;99.90
7192;DHT22;3637;51.494;11.958;2022-12-18T08:55:51;-5.90;99.90
7192;DHT22;3637;51.494;11.958;2022-12-18T08:58:54;-6.40;99.90
7192;DHT22;3637;51.494;11.958;2022-12-18T09:01:56;-5.60;99.90
7192;DHT22;3637;51.494;11.958;2022-12-18T09:04:59;-6.30;99.90
7192;DHT22;3637;51.494;11.958;2022-12-18T09:08:01;-6.20;99.90
7192;DHT22;3637;51.494;11.958;2022-12-18T09:11:04;-5.50;99.90
7192;DHT22;3637;51.494;11.958;2022-12-18T09:14:06;-6.00;99.90
7192;DHT22;3637;51.494;11.958;2022-12-18T09:17:07;-5.40;99.90
7192;DHT22;3637;51.494;11.958;2022-12-18T09:20:11;-5.70;99.90
7192;DHT22;3637;51.494;11.958;2022-12-18T09:23:13;-5.40;99.90
7192;DHT22;3637;51.494;11.958;2022-12-18T09:26:15;-5.70;99.90
7192;DHT22;3637;51.494;11.958;2022-12-18T09:29:17;-4.50;99.90
7192;DHT22;3637;51.494;11.958;2022-12-18T09:32:19;-5.50;99.90
7192;DHT22;3637;51.494;11.958;2022-12-18T09:35:22;-5.30;99.90
7192;DHT22;3637;51.494;11.958;2022-12-18T09:38:24;-5.20;99.90
7192;DHT22;3637;51.494;11.958;2022-12-18T09:41:38;-4.10;99.90
7192;DHT22;3637;51.494;11.958;2022-12-18T09:44:43;-5.00;99.90
7192;DHT22;3637;51.494;11.958;2022-12-18T09:47:47;-4.40;99.90
7192;DHT22;3637;51.494;11.958;2022-12-18T09:50:57;-4.10;99.90
7192;DHT22;3637;51.494;11.958;2022-12-18T09:54:05;-4.00;99.90
7192;DHT22;3637;51.494;11.958;2022-12-18T09:57:12;-3.90;99.90
7192;DHT22;3637;51.494;11.958;2022-12-18T10:00:17;-3.40;99.90
7192;DHT22;3637;51.494;11.958;2022-12-18T10:03:21;-2.50;99.90
7192;DHT22;3637;51.494;11.958;2022-12-18T10:06:26;-2.80;99.90
7192;DHT22;3637;51.494;11.958;2022-12-18T10:09:37;-3.40;99.90
7192;DHT22;3637;51.494;11.958;2022-12-18T10:12:45;-3.30;99.90
7192;DHT22;3637;51.494;11.958;2022-12-18T10:15:58;-3.30;99.90
7192;DHT22;3637;51.494;11.958;2022-12-18T10:19:13;-3.20;99.90
7192;DHT22;3637;51.494;11.958;2022-12-18T10:22:29;-3.40;99.90
7192;DHT22;3637;51.494;11.958;2022-12-18T10:25:36;-3.40;99.90
7192;DHT22;3637;51.494;11.958;2022-12-18T10:28:41;-3.10;99.90
7192;DHT22;3637;51.494;11.958;2022-12-18T10:31:43;-3.20;99.90
7192;DHT22;3637;51.494;11.958;2022-12-18T10:34:47;-3.00;99.90
7192;DHT22;3637;51.494;11.958;2022-12-18T10:38:03;-3.00;99.90
7192;DHT22;3637;51.494;11.958;2022-12-18T10:41:22;-2.90;99.90
7192;DHT22;3637;51.494;11.958;2022-12-18T10:44:27;-2.70;99.90
7192;DHT22;3637;51.494;11.958;2022-12-18T10:47:29;-2.70;99.90
7192;DHT22;3637;51.494;11.958;2022-12-18T10:50:34;-2.60;99.90
7192;DHT22;3637;51.494;11.958;2022-12-18T10:53:38;-2.50;99.90
7192;DHT22;3637;51.494;11.958;2022-12-18T10:56:42;-2.50;99.90
7192;DHT22;3637;51.494;11.958;2022-12-18T10:59:51;-2.00;99.90
7192;DHT22;3637;51.494;11.958;2022-12-18T11:02:53;-2.20;99.90
7192;DHT22;3637;51.494;11.958;2022-12-18T11:06:00;-2.10;99.90
7192;DHT22;3637;51.494;11.958;2022-12-18T11:09:04;-1.70;99.90
7192;DHT22;3637;51.494;11.958;2022-12-18T11:12:15;-1.20;99.90
7192;DHT22;3637;51.494;11.958;2022-12-18T11:15:19;-2.10;99.90
7192;DHT22;3637;51.494;11.958;2022-12-18T11:18:22;-1.40;99.90
7192;DHT22;3637;51.494;11.958;2022-12-18T11:21:26;-2.20;99.90
7192;DHT22;3637;51.494;11.958;2022-12-18T11:24:30;-1.00;99.90
7192;DHT22;3637;51.494;11.958;2022-12-18T11:27:32;-1.90;99.90
7192;DHT22;3637;51.494;11.958;2022-12-18T11:30:35;-1.70;99.90
7192;DHT22;3637;51.494;11.958;2022-12-18T11:33:37;-1.60;99.90
7192;DHT22;3637;51.494;11.958;2022-12-18T11:36:40;-1.50;99.90
7192;DHT22;3637;51.494;11.958;2022-12-18T11:39:45;-1.30;99.90
7192;DHT22;3637;51.494;11.958;2022-12-18T11:42:48;-1.20;99.90
7192;DHT22;3637;51.494;11.958;2022-12-18T11:45:55;-1.20;99.90
7192;DHT22;3637;51.494;11.958;2022-12-18T11:49:01;-1.10;99.90
7192;DHT22;3637;51.494;11.958;2022-12-18T11:52:13;-1.00;99.90
7192;DHT22;3637;51.494;11.958;2022-12-18T11:55:24;-0.20;99.90
7192;DHT22;3637;51.494;11.958;2022-12-18T11:58:50;-0.70;99.90
7192;DHT22;3637;51.494;11.958;2022-12-18T12:02:01;1.70;99.90
7192;DHT22;3637;51.494;11.958;2022-12-18T12:05:18;-0.40;99.90
7192;DHT22;3637;51.494;11.958;2022-12-18T12:08:26;0.20;99.90
7192;DHT22;3637;51.494;11.958;2022-12-18T12:11:42;0.20;99.90
7192;DHT22;3637;51.494;11.958;2022-12-18T12:14:52;-0.40;99.90
7192;DHT22;3637;51.494;11.958;2022-12-18T12:18:04;-0.50;99.90
7192;DHT22;3637;51.494;11.958;2022-12-18T12:21:15;-0.40;99.90
7192;DHT22;3637;51.494;11.958;2022-12-18T12:24:27;-0.70;99.90
7192;DHT22;3637;51.494;11.958;2022-12-18T12:27:39;-0.80;99.90
7192;DHT22;3637;51.494;11.958;2022-12-18T12:30:55;-0.80;99.90
7192;DHT22;3637;51.494;11.958;2022-12-18T12:34:09;-0.70;99.90
7192;DHT22;3637;51.494;11.958;2022-12-18T12:37:22;-0.70;99.90
7192;DHT22;3637;51.494;11.958;2022-12-18T12:40:28;-0.70;99.90
7192;DHT22;3637;51.494;11.958;2022-12-18T12:43:37;-0.10;99.90
7192;DHT22;3637;51.494;11.958;2022-12-18T12:46:41;-0.70;99.90
7192;DHT22;3637;51.494;11.958;2022-12-18T12:49:44;-0.70;99.90
7192;DHT22;3637;51.494;11.958;2022-12-18T12:52:50;-0.70;99.90
7192;DHT22;3637;51.494;11.958;2022-12-18T12:55:54;-0.70;99.90
7192;DHT22;3637;51.494;11.958;2022-12-18T12:59:04;-0.90;99.90
7192;DHT22;3637;51.494;11.958;2022-12-18T13:02:16;-1.10;99.90
7192;DHT22;3637;51.494;11.958;2022-12-18T13:05:23;-1.10;99.90
7192;DHT22;3637;51.494;11.958;2022-12-18T13:08:28;-1.10;99.90
7192;DHT22;3637;51.494;11.958;2022-12-18T13:11:34;-1.10;99.90
7192;DHT22;3637;51.494;11.958;2022-12-18T13:15:12;-1.10;99.90
7192;DHT22;3637;51.494;11.958;2022-12-18T13:18:18;-1.00;99.90
7192;DHT22;3637;51.494;11.958;2022-12-18T13:21:24;-1.00;99.90
7192;DHT22;3637;51.494;11.958;2022-12-18T13:24:30;-1.30;99.90
7192;DHT22;3637;51.494;11.958;2022-12-18T13:27:55;-0.80;99.90
7192;DHT22;3637;51.494;11.958;2022-12-18T13:31:00;-1.30;99.90
7192;DHT22;3637;51.494;11.958;2022-12-18T13:34:15;-1.20;99.90
7192;DHT22;3637;51.494;11.958;2022-12-18T13:37:39;-1.30;99.90
7192;DHT22;3637;51.494;11.958;2022-12-18T13:40:57;-1.20;99.90
7192;DHT22;3637;51.494;11.958;2022-12-18T13:44:11;-1.30;99.90
7192;DHT22;3637;51.494;11.958;2022-12-18T13:47:28;-1.50;99.90
7192;DHT22;3637;51.494;11.958;2022-12-18T13:50:33;-1.40;99.90
7192;DHT22;3637;51.494;11.958;2022-12-18T13:53:37;-1.30;99.90
7192;DHT22;3637;51.494;11.958;2022-12-18T13:56:44;-1.30;99.90
7192;DHT22;3637;51.494;11.958;2022-12-18T13:59:46;-1.40;99.90
7192;DHT22;3637;51.494;11.958;2022-12-18T14:02:50;-1.50;99.90
7192;DHT22;3637;51.494;11.958;2022-12-18T14:05:55;-1.20;99.90
7192;DHT22;3637;51.494;11.958;2022-12-18T14:08:58;-1.30;99.90
7192;DHT22;3637;51.494;11.958;2022-12-18T14:12:00;-1.20;99.90
7192;DHT22;3637;51.494;11.958;2022-12-18T14:15:22;-1.70;99.90
7192;DHT22;3637;51.494;11.958;2022-12-18T14:18:31;-1.70;99.90
7192;DHT22;3637;51.494;11.958;2022-12-18T14:21:35;-1.70;99.90
7192;DHT22;3637;51.494;11.958;2022-12-18T14:24:38;-1.80;99.90
7192;DHT22;3637;51.494;11.958;2022-12-18T14:27:43;-1.90;99.90
7192;DHT22;3637;51.494;11.958;2022-12-18T14:30:46;-2.00;99.90
7192;DHT22;3637;51.494;11.958;2022-12-18T14:33:49;-2.10;99.90
7192;DHT22;3637;51.494;11.958;2022-12-18T14:36:52;-2.10;99.90
7192;DHT22;3637;51.494;11.958;2022-12-18T14:39:56;-2.20;99.90
7192;DHT22;3637;51.494;11.958;2022-12-18T14:46:43;-1.50;99.90
7192;DHT22;3637;51.494;11.958;2022-12-18T14:49:47;-2.30;99.90
7192;DHT22;3637;51.494;11.958;2022-12-18T14:52:50;-1.80;99.90
7192;DHT22;3637;51.494;11.958;2022-12-18T14:55:52;-2.30;99.90
7192;DHT22;3637;51.494;11.958;2022-12-18T14:58:56;-2.40;99.90
7192;DHT22;3637;51.494;11.958;2022-12-18T15:02:01;-2.40;99.90
7192;DHT22;3637;51.494;11.958;2022-12-18T15:05:17;-2.50;99.90
7192;DHT22;3637;51.494;11.958;2022-12-18T15:08:34;-2.10;99.90
7192;DHT22;3637;51.494;11.958;2022-12-18T15:11:44;-1.50;99.90
7192;DHT22;3637;51.494;11.958;2022-12-18T15:14:47;-2.40;99.90
7192;DHT22;3637;51.494;11.958;2022-12-18T15:17:56;-2.40;99.90
7192;DHT22;3637;51.494;11.958;2022-12-18T15:21:08;-2.50;99.90
7192;DHT22;3637;51.494;11.958;2022-12-18T15:24:17;-2.50;99.90
7192;DHT22;3637;51.494;11.958;2022-12-18T15:30:58;-2.60;99.90
7192;DHT22;3637;51.494;11.958;2022-12-18T15:34:09;-2.60;99.90
7192;DHT22;3637;51.494;11.958;2022-12-18T15:37:14;-2.80;99.90
7192;DHT22;3637;51.494;11.958;2022-12-18T15:40:18;-2.70;99.90
7192;DHT22;3637;51.494;11.958;2022-12-18T15:43:21;-2.00;99.90
7192;DHT22;3637;51.494;11.958;2022-12-18T15:46:36;-2.70;99.90
7192;DHT22;3637;51.494;11.958;2022-12-18T15:49:38;-2.80;99.90
7192;DHT22;3637;51.494;11.958;2022-12-18T15:52:43;-2.80;99.90
7192;DHT22;3637;51.494;11.958;2022-12-18T15:55:45;-2.30;99.90
7192;DHT22;3637;51.494;11.958;2022-12-18T15:59:10;-2.80;99.90
7192;DHT22;3637;51.494;11.958;2022-12-18T16:02:17;-2.80;99.90
7192;DHT22;3637;51.494;11.958;2022-12-18T16:05:20;-2.60;99.90
7192;DHT22;3637;51.494;11.958;2022-12-18T16:08:24;-2.90;99.90
7192;DHT22;3637;51.494;11.958;2022-12-18T16:11:27;-2.90;99.90
7192;DHT22;3637;51.494;11.958;2022-12-18T16:14:42;-2.90;99.90
7192;DHT22;3637;51.494;11.958;2022-12-18T16:17:45;-2.90;99.90
7192;DHT22;3637;51.494;11.958;2022-12-18T16:20:47;-2.60;99.90
7192;DHT22;3637;51.494;11.958;2022-12-18T16:23:50;-2.70;99.90
7192;DHT22;3637;51.494;11.958;2022-12-18T16:26:53;-2.80;99.90
7192;DHT22;3637;51.494;11.958;2022-12-18T16:29:55;-2.70;99.90
7192;DHT22;3637;51.494;11.958;2022-12-18T16:32:57;-2.70;99.90
7192;DHT22;3637;51.494;11.958;2022-12-18T16:35:59;-2.70;99.90
7192;DHT22;3637;51.494;11.958;2022-12-18T16:39:06;-2.70;99.90
7192;DHT22;3637;51.494;11.958;2022-12-18T16:42:11;-2.70;99.90
7192;DHT22;3637;51.494;11.958;2022-12-18T16:45:17;-2.50;99.90
7192;DHT22;3637;51.494;11.958;2022-12-18T16:48:19;-2.40;99.90
7192;DHT22;3637;51.494;11.958;2022-12-18T16:51:21;-2.60;99.90
7192;DHT22;3637;51.494;11.958;2022-12-18T16:54:24;-2.70;99.90
7192;DHT22;3637;51.494;11.958;2022-12-18T16:57:29;-2.70;99.90
7192;DHT22;3637;51.494;11.958;2022-12-18T17:00:31;-2.60;99.90
7192;DHT22;3637;51.494;11.958;2022-12-18T17:03:33;-2.60;99.90
7192;DHT22;3637;51.494;11.958;2022-12-18T17:06:38;-2.80;99.90
7192;DHT22;3637;51.494;11.958;2022-12-18T17:09:42;-2.80;99.90
7192;DHT22;3637;51.494;11.958;2022-12-18T17:12:44;-3.80;99.90
7192;DHT22;3637;51.494;11.958;2022-12-18T17:15:46;-2.40;99.90
7192;DHT22;3637;51.494;11.958;2022-12-18T17:18:48;-2.70;99.90
7192;DHT22;3637;51.494;11.958;2022-12-18T17:21:50;-2.70;99.90
7192;DHT22;3637;51.494;11.958;2022-12-18T17:24:54;-1.40;99.90
7192;DHT22;3637;51.494;11.958;2022-12-18T17:27:56;-2.70;99.90
7192;DHT22;3637;51.494;11.958;2022-12-18T17:30:58;-2.70;99.90
7192;DHT22;3637;51.494;11.958;2022-12-18T17:34:00;-2.50;99.90
7192;DHT22;3637;51.494;11.958;2022-12-18T17:37:03;-2.50;99.90
7192;DHT22;3637;51.494;11.958;2022-12-18T17:40:08;-2.30;99.90
7192;DHT22;3637;51.494;11.958;2022-12-18T17:43:10;-2.50;99.90
7192;DHT22;3637;51.494;11.958;2022-12-18T17:46:13;-2.50;99.90
7192;DHT22;3637;51.494;11.958;2022-12-18T17:49:15;-2.50;99.90
7192;DHT22;3637;51.494;11.958;2022-12-18T17:52:17;-2.50;99.90
7192;DHT22;3637;51.494;11.958;2022-12-18T17:55:20;-2.50;99.90
7192;DHT22;3637;51.494;11.958;2022-12-18T17:58:22;-2.20;99.90
7192;DHT22;3637;51.494;11.958;2022-12-18T18:01:25;-2.40;99.90
7192;DHT22;3637;51.494;11.958;2022-12-18T18:04:29;-2.60;99.90
7192;DHT22;3637;51.494;11.958;2022-12-18T18:07:31;-2.60;99.90
7192;DHT22;3637;51.494;11.958;2022-12-18T18:10:36;-2.60;99.90
7192;DHT22;3637;51.494;11.958;2022-12-18T18:13:38;-2.60;99.90
7192;DHT22;3637;51.494;11.958;2022-12-18T18:17:03;-2.60;99.90
7192;DHT22;3637;51.494;11.958;2022-12-18T18:20:05;-2.50;99.90
7192;DHT22;3637;51.494;11.958;2022-12-18T18:23:08;-2.50;99.90
7192;DHT22;3637;51.494;11.958;2022-12-18T18:26:11;-1.20;99.90
7192;DHT22;3637;51.494;11.958;2022-12-18T18:29:17;-1.10;99.90
7192;DHT22;3637;51.494;11.958;2022-12-18T18:32:19;-2.60;99.90
7192;DHT22;3637;51.494;11.958;2022-12-18T18:35:21;-2.20;99.90
7192;DHT22;3637;51.494;11.958;2022-12-18T18:38:23;-2.20;99.90
7192;DHT22;3637;51.494;11.958;2022-12-18T18:41:27;-1.30;99.90
7192;DHT22;3637;51.494;11.958;2022-12-18T18:44:30;-2.10;99.90
7192;DHT22;3637;51.494;11.958;2022-12-18T18:47:33;-2.10;99.90
7192;DHT22;3637;51.494;11.958;2022-12-18T18:50:37;-2.10;99.90
7192;DHT22;3637;51.494;11.958;2022-12-18T18:53:41;-0.90;99.90
7192;DHT22;3637;51.494;11.958;2022-12-18T18:56:45;-1.90;99.90
7192;DHT22;3637;51.494;11.958;2022-12-18T18:59:47;-2.00;99.90
7192;DHT22;3637;51.494;11.958;2022-12-18T19:02:49;-1.20;99.90
7192;DHT22;3637;51.494;11.958;2022-12-18T19:05:52;-0.80;99.90
7192;DHT22;3637;51.494;11.958;2022-12-18T19:08:55;-1.90;99.90
7192;DHT22;3637;51.494;11.958;2022-12-18T19:11:59;-1.80;99.90
7192;DHT22;3637;51.494;11.958;2022-12-18T19:15:18;-1.40;99.90
7192;DHT22;3637;51.494;11.958;2022-12-18T19:18:21;-1.70;99.90
7192;DHT22;3637;51.494;11.958;2022-12-18T19:21:24;-1.70;99.90
7192;DHT22;3637;51.494;11.958;2022-12-18T19:24:27;-1.70;99.90
7192;DHT22;3637;51.494;11.958;2022-12-18T19:27:30;-1.60;99.90
7192;DHT22;3637;51.494;11.958;2022-12-18T19:30:37;-1.70;99.90
7192;DHT22;3637;51.494;11.958;2022-12-18T19:33:41;-1.40;99.90
7192;DHT22;3637;51.494;11.958;2022-12-18T19:36:43;-1.60;99.90
7192;DHT22;3637;51.494;11.958;2022-12-18T19:39:48;-1.90;99.90
7192;DHT22;3637;51.494;11.958;2022-12-18T19:42:51;-1.60;99.90
7192;DHT22;3637;51.494;11.958;2022-12-18T19:45:53;-1.60;99.90
7192;DHT22;3637;51.494;11.958;2022-12-18T19:48:58;-0.50;99.90
7192;DHT22;3637;51.494;11.958;2022-12-18T19:52:00;-1.70;99.90
7192;DHT22;3637;51.494;11.958;2022-12-18T19:55:02;-1.60;99.90
7192;DHT22;3637;51.494;11.958;2022-12-18T19:58:05;-1.70;99.90